sensor_id;sensor_type;location;lat;lon;timestamp;P1;durP1;ratioP1;P2;durP2;ratioP2
28910;SDS011;16028;42.642;23.310;2023-08-30T00:00:45;15.20;;;12.00;;
28910;SDS011;16028;42.642;23.310;2023-08-30T00:03:12;11.45;;;10.25;;
28910;SDS011;16028;42.642;23.310;2023-08-30T00:05:39;16.75;;;11.40;;
28910;SDS011;16028;42.642;23.310;2023-08-30T00:08:07;16.65;;;10.75;;
28910;SDS011;16028;42.642;23.310;2023-08-30T00:10:34;14.88;;;10.75;;
28910;SDS011;16028;42.642;23.310;2023-08-30T00:13:03;12.27;;;10.82;;
28910;SDS011;16028;42.642;23.310;2023-08-30T00:15:30;10.82;;;9.23;;
28910;SDS011;16028;42.642;23.310;2023-08-30T00:17:57;13.43;;;9.05;;
28910;SDS011;16028;42.642;23.310;2023-08-30T00:20:24;13.45;;;8.60;;
28910;SDS011;16028;42.642;23.310;2023-08-30T00:22:50;13.05;;;8.38;;
28910;SDS011;16028;42.642;23.310;2023-08-30T00:25:19;9.80;;;7.85;;
28910;SDS011;16028;42.642;23.310;2023-08-30T00:27:46;9.57;;;7.70;;
28910;SDS011;16028;42.642;23.310;2023-08-30T00:30:13;9.75;;;7.30;;
28910;SDS011;16028;42.642;23.310;2023-08-30T00:32:40;14.75;;;7.47;;
28910;SDS011;16028;42.642;23.310;2023-08-30T00:35:07;8.77;;;6.88;;
28910;SDS011;16028;42.642;23.310;2023-08-30T00:37:34;12.70;;;6.75;;
28910;SDS011;16028;42.642;23.310;2023-08-30T00:40:01;11.02;;;6.97;;
28910;SDS011;16028;42.642;23.310;2023-08-30T00:42:32;9.40;;;6.32;;
28910;SDS011;16028;42.642;23.310;2023-08-30T00:44:59;8.02;;;6.40;;
28910;SDS011;16028;42.642;23.310;2023-08-30T00:47:26;15.63;;;7.03;;
28910;SDS011;16028;42.642;23.310;2023-08-30T00:49:53;9.10;;;6.43;;
28910;SDS011;16028;42.642;23.310;2023-08-30T00:52:20;17.02;;;7.50;;
28910;SDS011;16028;42.642;23.310;2023-08-30T00:54:47;8.77;;;6.75;;
28910;SDS011;16028;42.642;23.310;2023-08-30T00:57:14;10.13;;;6.55;;
28910;SDS011;16028;42.642;23.310;2023-08-30T00:59:43;9.63;;;6.63;;
28910;SDS011;16028;42.642;23.310;2023-08-30T01:02:10;13.15;;;6.57;;
28910;SDS011;16028;42.642;23.310;2023-08-30T01:04:37;11.45;;;6.35;;
28910;SDS011;16028;42.642;23.310;2023-08-30T01:07:04;11.45;;;6.72;;
28910;SDS011;16028;42.642;23.310;2023-08-30T01:09:31;9.13;;;6.50;;
28910;SDS011;16028;42.642;23.310;2023-08-30T01:12:00;11.57;;;6.38;;
28910;SDS011;16028;42.642;23.310;2023-08-30T01:14:34;11.15;;;6.30;;
28910;SDS011;16028;42.642;23.310;2023-08-30T01:17:08;10.55;;;5.30;;
28910;SDS011;16028;42.642;23.310;2023-08-30T01:19:41;11.27;;;6.18;;
28910;SDS011;16028;42.642;23.310;2023-08-30T01:22:15;8.75;;;5.78;;
28910;SDS011;16028;42.642;23.310;2023-08-30T01:24:48;10.52;;;6.25;;
28910;SDS011;16028;42.642;23.310;2023-08-30T01:27:25;16.80;;;7.15;;
28910;SDS011;16028;42.642;23.310;2023-08-30T01:29:57;12.05;;;6.97;;
28910;SDS011;16028;42.642;23.310;2023-08-30T01:32:25;10.73;;;6.80;;
28910;SDS011;16028;42.642;23.310;2023-08-30T01:34:53;10.45;;;7.28;;
28910;SDS011;16028;42.642;23.310;2023-08-30T01:37:22;13.10;;;7.85;;
28910;SDS011;16028;42.642;23.310;2023-08-30T01:39:50;12.80;;;7.30;;
28910;SDS011;16028;42.642;23.310;2023-08-30T01:42:18;9.98;;;7.13;;
28910;SDS011;16028;42.642;23.310;2023-08-30T01:44:49;16.08;;;7.10;;
28910;SDS011;16028;42.642;23.310;2023-08-30T01:47:19;13.15;;;7.13;;
28910;SDS011;16028;42.642;23.310;2023-08-30T01:49:48;13.50;;;7.43;;
28910;SDS011;16028;42.642;23.310;2023-08-30T01:52:16;11.35;;;7.22;;
28910;SDS011;16028;42.642;23.310;2023-08-30T01:54:43;21.10;;;7.45;;
28910;SDS011;16028;42.642;23.310;2023-08-30T01:57:12;10.85;;;6.90;;
28910;SDS011;16028;42.642;23.310;2023-08-30T01:59:39;10.25;;;7.28;;
28910;SDS011;16028;42.642;23.310;2023-08-30T02:02:07;15.75;;;7.47;;
28910;SDS011;16028;42.642;23.310;2023-08-30T02:04:33;10.43;;;7.20;;
28910;SDS011;16028;42.642;23.310;2023-08-30T02:07:02;10.57;;;6.28;;
28910;SDS011;16028;42.642;23.310;2023-08-30T02:09:32;9.88;;;6.82;;
28910;SDS011;16028;42.642;23.310;2023-08-30T02:12:07;12.82;;;7.03;;
28910;SDS011;16028;42.642;23.310;2023-08-30T02:14:38;10.75;;;7.00;;
28910;SDS011;16028;42.642;23.310;2023-08-30T02:17:08;12.50;;;7.40;;
28910;SDS011;16028;42.642;23.310;2023-08-30T02:19:36;11.35;;;7.35;;
28910;SDS011;16028;42.642;23.310;2023-08-30T02:22:03;12.75;;;6.90;;
28910;SDS011;16028;42.642;23.310;2023-08-30T02:24:30;8.60;;;6.45;;
28910;SDS011;16028;42.642;23.310;2023-08-30T02:26:57;15.88;;;7.60;;
28910;SDS011;16028;42.642;23.310;2023-08-30T02:29:23;12.68;;;6.85;;
28910;SDS011;16028;42.642;23.310;2023-08-30T02:31:50;13.70;;;7.00;;
28910;SDS011;16028;42.642;23.310;2023-08-30T02:34:18;9.20;;;6.90;;
28910;SDS011;16028;42.642;23.310;2023-08-30T02:36:45;11.07;;;7.43;;
28910;SDS011;16028;42.642;23.310;2023-08-30T02:39:13;9.75;;;7.30;;
28910;SDS011;16028;42.642;23.310;2023-08-30T02:41:41;12.90;;;6.88;;
28910;SDS011;16028;42.642;23.310;2023-08-30T02:44:08;12.60;;;7.60;;
28910;SDS011;16028;42.642;23.310;2023-08-30T02:46:37;13.60;;;6.93;;
28910;SDS011;16028;42.642;23.310;2023-08-30T02:49:03;11.65;;;7.47;;
28910;SDS011;16028;42.642;23.310;2023-08-30T02:51:31;12.57;;;6.68;;
28910;SDS011;16028;42.642;23.310;2023-08-30T02:53:58;10.98;;;7.47;;
28910;SDS011;16028;42.642;23.310;2023-08-30T02:56:25;16.10;;;8.10;;
28910;SDS011;16028;42.642;23.310;2023-08-30T02:58:52;14.95;;;7.35;;
28910;SDS011;16028;42.642;23.310;2023-08-30T03:01:18;14.68;;;7.80;;
28910;SDS011;16028;42.642;23.310;2023-08-30T03:03:45;9.85;;;6.78;;
28910;SDS011;16028;42.642;23.310;2023-08-30T03:06:12;8.32;;;6.30;;
28910;SDS011;16028;42.642;23.310;2023-08-30T03:08:41;13.07;;;7.10;;
28910;SDS011;16028;42.642;23.310;2023-08-30T03:11:08;15.57;;;6.63;;
28910;SDS011;16028;42.642;23.310;2023-08-30T03:13:36;12.70;;;7.00;;
28910;SDS011;16028;42.642;23.310;2023-08-30T03:16:09;10.88;;;6.53;;
28910;SDS011;16028;42.642;23.310;2023-08-30T03:18:37;15.40;;;7.47;;
28910;SDS011;16028;42.642;23.310;2023-08-30T03:21:03;14.32;;;6.93;;
28910;SDS011;16028;42.642;23.310;2023-08-30T03:23:30;15.10;;;6.40;;
28910;SDS011;16028;42.642;23.310;2023-08-30T03:25:59;10.65;;;5.40;;
28910;SDS011;16028;42.642;23.310;2023-08-30T03:28:26;17.52;;;6.22;;
28910;SDS011;16028;42.642;23.310;2023-08-30T03:30:53;21.50;;;6.25;;
28910;SDS011;16028;42.642;23.310;2023-08-30T03:33:19;20.33;;;6.47;;
28910;SDS011;16028;42.642;23.310;2023-08-30T03:35:46;15.43;;;6.18;;
28910;SDS011;16028;42.642;23.310;2023-08-30T03:38:13;15.55;;;6.15;;
28910;SDS011;16028;42.642;23.310;2023-08-30T03:40:40;15.63;;;7.43;;
28910;SDS011;16028;42.642;23.310;2023-08-30T03:43:08;17.95;;;7.10;;
28910;SDS011;16028;42.642;23.310;2023-08-30T03:45:35;13.32;;;6.57;;
28910;SDS011;16028;42.642;23.310;2023-08-30T03:48:02;17.98;;;5.95;;
28910;SDS011;16028;42.642;23.310;2023-08-30T03:50:30;22.17;;;6.03;;
28910;SDS011;16028;42.642;23.310;2023-08-30T03:52:56;16.90;;;6.25;;
28910;SDS011;16028;42.642;23.310;2023-08-30T03:55:23;25.83;;;6.00;;
28910;SDS011;16028;42.642;23.310;2023-08-30T03:57:50;8.65;;;5.88;;
28910;SDS011;16028;42.642;23.310;2023-08-30T04:00:18;13.18;;;5.47;;
28910;SDS011;16028;42.642;23.310;2023-08-30T04:02:45;11.98;;;5.82;;
28910;SDS011;16028;42.642;23.310;2023-08-30T04:05:12;21.33;;;6.32;;
28910;SDS011;16028;42.642;23.310;2023-08-30T04:07:39;11.95;;;6.07;;
28910;SDS011;16028;42.642;23.310;2023-08-30T04:10:06;17.42;;;5.95;;
28910;SDS011;16028;42.642;23.310;2023-08-30T04:12:33;14.98;;;6.20;;
28910;SDS011;16028;42.642;23.310;2023-08-30T04:15:00;10.82;;;5.85;;
28910;SDS011;16028;42.642;23.310;2023-08-30T04:17:28;16.75;;;7.10;;
28910;SDS011;16028;42.642;23.310;2023-08-30T04:19:55;12.50;;;6.35;;
28910;SDS011;16028;42.642;23.310;2023-08-30T04:22:22;14.20;;;6.32;;
28910;SDS011;16028;42.642;23.310;2023-08-30T04:24:49;14.05;;;6.25;;
28910;SDS011;16028;42.642;23.310;2023-08-30T04:27:16;12.35;;;6.47;;
28910;SDS011;16028;42.642;23.310;2023-08-30T04:29:42;9.45;;;6.20;;
28910;SDS011;16028;42.642;23.310;2023-08-30T04:32:10;10.65;;;6.47;;
28910;SDS011;16028;42.642;23.310;2023-08-30T04:34:38;12.98;;;6.70;;
28910;SDS011;16028;42.642;23.310;2023-08-30T04:37:05;13.25;;;5.97;;
28910;SDS011;16028;42.642;23.310;2023-08-30T04:39:31;12.98;;;6.22;;
28910;SDS011;16028;42.642;23.310;2023-08-30T04:41:58;13.07;;;6.00;;
28910;SDS011;16028;42.642;23.310;2023-08-30T04:44:25;15.65;;;7.20;;
28910;SDS011;16028;42.642;23.310;2023-08-30T04:46:53;19.83;;;7.43;;
28910;SDS011;16028;42.642;23.310;2023-08-30T04:49:20;10.65;;;5.78;;
28910;SDS011;16028;42.642;23.310;2023-08-30T04:51:49;13.50;;;5.30;;
28910;SDS011;16028;42.642;23.310;2023-08-30T04:54:15;17.48;;;5.63;;
28910;SDS011;16028;42.642;23.310;2023-08-30T04:56:42;9.60;;;5.03;;
28910;SDS011;16028;42.642;23.310;2023-08-30T04:59:09;12.30;;;5.70;;
28910;SDS011;16028;42.642;23.310;2023-08-30T05:01:36;12.13;;;5.90;;
28910;SDS011;16028;42.642;23.310;2023-08-30T05:04:04;12.07;;;4.43;;
28910;SDS011;16028;42.642;23.310;2023-08-30T05:06:32;9.57;;;3.38;;
28910;SDS011;16028;42.642;23.310;2023-08-30T05:09:00;8.02;;;3.65;;
28910;SDS011;16028;42.642;23.310;2023-08-30T05:11:27;11.98;;;4.47;;
28910;SDS011;16028;42.642;23.310;2023-08-30T05:13:54;7.85;;;3.78;;
28910;SDS011;16028;42.642;23.310;2023-08-30T05:16:21;13.30;;;4.43;;
28910;SDS011;16028;42.642;23.310;2023-08-30T05:18:47;16.35;;;4.30;;
28910;SDS011;16028;42.642;23.310;2023-08-30T05:21:14;13.18;;;4.82;;
28910;SDS011;16028;42.642;23.310;2023-08-30T05:23:41;10.25;;;4.35;;
28910;SDS011;16028;42.642;23.310;2023-08-30T05:26:09;6.55;;;4.20;;
28910;SDS011;16028;42.642;23.310;2023-08-30T05:28:37;10.18;;;3.90;;
28910;SDS011;16028;42.642;23.310;2023-08-30T05:31:04;7.72;;;4.20;;
28910;SDS011;16028;42.642;23.310;2023-08-30T05:33:31;10.65;;;4.68;;
28910;SDS011;16028;42.642;23.310;2023-08-30T05:35:58;10.73;;;4.32;;
28910;SDS011;16028;42.642;23.310;2023-08-30T05:38:25;9.82;;;4.97;;
28910;SDS011;16028;42.642;23.310;2023-08-30T05:40:52;9.82;;;4.43;;
28910;SDS011;16028;42.642;23.310;2023-08-30T05:43:20;8.93;;;4.43;;
28910;SDS011;16028;42.642;23.310;2023-08-30T05:45:47;8.07;;;3.97;;
28910;SDS011;16028;42.642;23.310;2023-08-30T05:48:14;9.63;;;4.05;;
28910;SDS011;16028;42.642;23.310;2023-08-30T05:50:41;6.65;;;3.70;;
28910;SDS011;16028;42.642;23.310;2023-08-30T05:53:08;8.27;;;3.80;;
28910;SDS011;16028;42.642;23.310;2023-08-30T05:55:34;9.20;;;4.10;;
28910;SDS011;16028;42.642;23.310;2023-08-30T05:58:02;8.15;;;4.43;;
28910;SDS011;16028;42.642;23.310;2023-08-30T06:00:30;8.18;;;4.50;;
28910;SDS011;16028;42.642;23.310;2023-08-30T06:02:57;9.25;;;4.43;;
28910;SDS011;16028;42.642;23.310;2023-08-30T06:05:24;9.45;;;4.80;;
28910;SDS011;16028;42.642;23.310;2023-08-30T06:07:52;7.93;;;4.10;;
28910;SDS011;16028;42.642;23.310;2023-08-30T06:10:19;6.63;;;3.92;;
28910;SDS011;16028;42.642;23.310;2023-08-30T06:12:46;8.07;;;3.78;;
28910;SDS011;16028;42.642;23.310;2023-08-30T06:15:12;4.53;;;3.50;;
28910;SDS011;16028;42.642;23.310;2023-08-30T06:17:43;7.78;;;4.25;;
28910;SDS011;16028;42.642;23.310;2023-08-30T06:20:11;6.53;;;3.90;;
28910;SDS011;16028;42.642;23.310;2023-08-30T06:22:38;7.15;;;3.70;;
28910;SDS011;16028;42.642;23.310;2023-08-30T06:25:08;6.53;;;4.10;;
28910;SDS011;16028;42.642;23.310;2023-08-30T06:27:40;8.02;;;3.92;;
28910;SDS011;16028;42.642;23.310;2023-08-30T06:30:08;6.55;;;3.78;;
28910;SDS011;16028;42.642;23.310;2023-08-30T06:32:35;8.63;;;4.47;;
28910;SDS011;16028;42.642;23.310;2023-08-30T06:35:04;9.00;;;3.88;;
28910;SDS011;16028;42.642;23.310;2023-08-30T06:37:31;11.93;;;4.20;;
28910;SDS011;16028;42.642;23.310;2023-08-30T06:39:59;10.27;;;4.38;;
28910;SDS011;16028;42.642;23.310;2023-08-30T06:42:26;9.90;;;4.45;;
28910;SDS011;16028;42.642;23.310;2023-08-30T06:44:53;10.32;;;4.35;;
28910;SDS011;16028;42.642;23.310;2023-08-30T06:47:19;7.53;;;4.15;;
28910;SDS011;16028;42.642;23.310;2023-08-30T06:49:46;5.78;;;3.88;;
28910;SDS011;16028;42.642;23.310;2023-08-30T06:52:14;9.27;;;4.30;;
28910;SDS011;16028;42.642;23.310;2023-08-30T06:54:41;8.52;;;4.38;;
28910;SDS011;16028;42.642;23.310;2023-08-30T06:57:08;13.90;;;4.80;;
28910;SDS011;16028;42.642;23.310;2023-08-30T06:59:35;8.82;;;4.72;;
28910;SDS011;16028;42.642;23.310;2023-08-30T07:02:02;8.70;;;4.32;;
28910;SDS011;16028;42.642;23.310;2023-08-30T07:04:29;7.22;;;4.00;;
28910;SDS011;16028;42.642;23.310;2023-08-30T07:06:56;11.88;;;4.10;;
28910;SDS011;16028;42.642;23.310;2023-08-30T07:09:24;9.57;;;4.07;;
28910;SDS011;16028;42.642;23.310;2023-08-30T07:11:54;11.93;;;4.85;;
28910;SDS011;16028;42.642;23.310;2023-08-30T07:14:21;9.45;;;4.47;;
28910;SDS011;16028;42.642;23.310;2023-08-30T07:16:47;6.55;;;4.00;;
28910;SDS011;16028;42.642;23.310;2023-08-30T07:19:15;5.90;;;3.65;;
28910;SDS011;16028;42.642;23.310;2023-08-30T07:21:42;7.35;;;4.07;;
28910;SDS011;16028;42.642;23.310;2023-08-30T07:24:09;5.90;;;3.88;;
28910;SDS011;16028;42.642;23.310;2023-08-30T07:26:37;7.03;;;3.92;;
28910;SDS011;16028;42.642;23.310;2023-08-30T07:29:04;8.27;;;4.18;;
28910;SDS011;16028;42.642;23.310;2023-08-30T07:31:31;7.85;;;4.18;;
28910;SDS011;16028;42.642;23.310;2023-08-30T07:33:57;11.35;;;4.40;;
28910;SDS011;16028;42.642;23.310;2023-08-30T07:36:24;8.55;;;4.28;;
28910;SDS011;16028;42.642;23.310;2023-08-30T07:38:51;5.15;;;3.10;;
28910;SDS011;16028;42.642;23.310;2023-08-30T07:41:18;8.57;;;4.10;;
28910;SDS011;16028;42.642;23.310;2023-08-30T07:43:46;8.00;;;4.03;;
28910;SDS011;16028;42.642;23.310;2023-08-30T07:46:13;5.88;;;3.65;;
28910;SDS011;16028;42.642;23.310;2023-08-30T07:48:40;7.20;;;4.10;;
28910;SDS011;16028;42.642;23.310;2023-08-30T07:51:06;6.25;;;4.15;;
28910;SDS011;16028;42.642;23.310;2023-08-30T07:53:33;6.53;;;3.70;;
28910;SDS011;16028;42.642;23.310;2023-08-30T07:56:00;6.72;;;4.40;;
28910;SDS011;16028;42.642;23.310;2023-08-30T07:58:27;7.82;;;3.85;;
28910;SDS011;16028;42.642;23.310;2023-08-30T08:00:56;6.82;;;3.67;;
28910;SDS011;16028;42.642;23.310;2023-08-30T08:03:22;8.68;;;3.67;;
28910;SDS011;16028;42.642;23.310;2023-08-30T08:05:49;6.85;;;4.28;;
28910;SDS011;16028;42.642;23.310;2023-08-30T08:08:16;6.78;;;4.30;;
28910;SDS011;16028;42.642;23.310;2023-08-30T08:10:43;6.78;;;3.47;;
28910;SDS011;16028;42.642;23.310;2023-08-30T08:13:10;8.27;;;3.42;;
28910;SDS011;16028;42.642;23.310;2023-08-30T08:15:37;8.68;;;3.80;;
28910;SDS011;16028;42.642;23.310;2023-08-30T08:18:06;6.35;;;3.55;;
28910;SDS011;16028;42.642;23.310;2023-08-30T08:20:33;5.55;;;3.20;;
28910;SDS011;16028;42.642;23.310;2023-08-30T08:23:00;6.97;;;4.13;;
28910;SDS011;16028;42.642;23.310;2023-08-30T08:25:27;6.25;;;3.80;;
28910;SDS011;16028;42.642;23.310;2023-08-30T08:27:54;7.38;;;3.08;;
28910;SDS011;16028;42.642;23.310;2023-08-30T08:30:21;7.10;;;3.70;;
28910;SDS011;16028;42.642;23.310;2023-08-30T08:32:47;11.60;;;4.22;;
28910;SDS011;16028;42.642;23.310;2023-08-30T08:35:16;10.02;;;3.63;;
28910;SDS011;16028;42.642;23.310;2023-08-30T08:37:43;8.82;;;4.03;;
28910;SDS011;16028;42.642;23.310;2023-08-30T08:40:10;11.20;;;3.90;;
28910;SDS011;16028;42.642;23.310;2023-08-30T08:42:37;9.38;;;3.72;;
28910;SDS011;16028;42.642;23.310;2023-08-30T08:45:04;5.82;;;3.38;;
28910;SDS011;16028;42.642;23.310;2023-08-30T08:47:31;8.95;;;4.00;;
28910;SDS011;16028;42.642;23.310;2023-08-30T08:49:58;6.97;;;3.85;;
28910;SDS011;16028;42.642;23.310;2023-08-30T08:52:26;10.15;;;4.40;;
28910;SDS011;16028;42.642;23.310;2023-08-30T08:54:54;14.70;;;4.70;;
28910;SDS011;16028;42.642;23.310;2023-08-30T08:57:21;10.40;;;3.78;;
28910;SDS011;16028;42.642;23.310;2023-08-30T08:59:48;9.55;;;4.80;;
28910;SDS011;16028;42.642;23.310;2023-08-30T09:02:15;9.70;;;4.40;;
28910;SDS011;16028;42.642;23.310;2023-08-30T09:04:42;9.98;;;3.92;;
28910;SDS011;16028;42.642;23.310;2023-08-30T09:07:10;8.77;;;4.38;;
28910;SDS011;16028;42.642;23.310;2023-08-30T09:09:38;10.40;;;3.70;;
28910;SDS011;16028;42.642;23.310;2023-08-30T09:12:05;5.80;;;4.07;;
28910;SDS011;16028;42.642;23.310;2023-08-30T09:14:33;9.32;;;4.38;;
28910;SDS011;16028;42.642;23.310;2023-08-30T09:17:00;9.30;;;4.22;;
28910;SDS011;16028;42.642;23.310;2023-08-30T09:19:28;6.38;;;3.83;;
28910;SDS011;16028;42.642;23.310;2023-08-30T09:21:55;6.20;;;3.65;;
28910;SDS011;16028;42.642;23.310;2023-08-30T09:24:23;9.55;;;4.88;;
28910;SDS011;16028;42.642;23.310;2023-08-30T09:26:52;8.57;;;4.90;;
28910;SDS011;16028;42.642;23.310;2023-08-30T09:29:20;7.50;;;4.30;;
28910;SDS011;16028;42.642;23.310;2023-08-30T09:31:50;9.23;;;4.80;;
28910;SDS011;16028;42.642;23.310;2023-08-30T09:34:21;10.02;;;4.85;;
28910;SDS011;16028;42.642;23.310;2023-08-30T09:36:49;8.05;;;5.15;;
28910;SDS011;16028;42.642;23.310;2023-08-30T09:39:16;9.35;;;5.25;;
28910;SDS011;16028;42.642;23.310;2023-08-30T09:41:43;9.57;;;5.25;;
28910;SDS011;16028;42.642;23.310;2023-08-30T09:44:12;8.70;;;5.07;;
28910;SDS011;16028;42.642;23.310;2023-08-30T09:46:41;8.75;;;5.35;;
28910;SDS011;16028;42.642;23.310;2023-08-30T09:49:09;6.35;;;5.63;;
28910;SDS011;16028;42.642;23.310;2023-08-30T09:51:37;8.75;;;5.28;;
28910;SDS011;16028;42.642;23.310;2023-08-30T09:54:06;10.68;;;5.75;;
28910;SDS011;16028;42.642;23.310;2023-08-30T09:56:40;8.23;;;5.38;;
28910;SDS011;16028;42.642;23.310;2023-08-30T09:59:08;16.33;;;6.18;;
28910;SDS011;16028;42.642;23.310;2023-08-30T10:01:38;11.73;;;5.90;;
28910;SDS011;16028;42.642;23.310;2023-08-30T10:04:06;9.60;;;5.90;;
28910;SDS011;16028;42.642;23.310;2023-08-30T10:06:34;9.82;;;5.75;;
28910;SDS011;16028;42.642;23.310;2023-08-30T10:09:02;11.63;;;6.13;;
28910;SDS011;16028;42.642;23.310;2023-08-30T10:11:30;9.93;;;5.97;;
28910;SDS011;16028;42.642;23.310;2023-08-30T10:13:59;8.20;;;5.65;;
28910;SDS011;16028;42.642;23.310;2023-08-30T10:16:26;10.88;;;5.93;;
28910;SDS011;16028;42.642;23.310;2023-08-30T10:18:59;9.98;;;6.00;;
28910;SDS011;16028;42.642;23.310;2023-08-30T10:21:29;6.60;;;5.30;;
28910;SDS011;16028;42.642;23.310;2023-08-30T10:23:57;7.47;;;4.88;;
28910;SDS011;16028;42.642;23.310;2023-08-30T10:26:27;10.75;;;5.95;;
28910;SDS011;16028;42.642;23.310;2023-08-30T10:28:57;7.60;;;5.40;;
28910;SDS011;16028;42.642;23.310;2023-08-30T10:31:26;8.13;;;5.22;;
28910;SDS011;16028;42.642;23.310;2023-08-30T10:33:54;10.20;;;5.10;;
28910;SDS011;16028;42.642;23.310;2023-08-30T10:36:24;11.95;;;5.85;;
28910;SDS011;16028;42.642;23.310;2023-08-30T10:38:52;9.90;;;5.55;;
28910;SDS011;16028;42.642;23.310;2023-08-30T10:41:20;8.27;;;5.28;;
28910;SDS011;16028;42.642;23.310;2023-08-30T10:43:49;9.65;;;5.72;;
28910;SDS011;16028;42.642;23.310;2023-08-30T10:46:17;10.48;;;5.80;;
28910;SDS011;16028;42.642;23.310;2023-08-30T10:48:55;7.88;;;5.38;;
28910;SDS011;16028;42.642;23.310;2023-08-30T10:51:36;11.63;;;5.60;;
28910;SDS011;16028;42.642;23.310;2023-08-30T10:54:09;9.50;;;5.32;;
28910;SDS011;16028;42.642;23.310;2023-08-30T10:56:45;10.32;;;5.90;;
28910;SDS011;16028;42.642;23.310;2023-08-30T10:59:16;8.45;;;5.10;;
28910;SDS011;16028;42.642;23.310;2023-08-30T11:01:44;9.25;;;5.15;;
28910;SDS011;16028;42.642;23.310;2023-08-30T11:04:12;7.05;;;5.53;;
28910;SDS011;16028;42.642;23.310;2023-08-30T11:06:42;9.05;;;5.43;;
28910;SDS011;16028;42.642;23.310;2023-08-30T11:09:09;8.75;;;5.18;;
28910;SDS011;16028;42.642;23.310;2023-08-30T11:11:38;8.93;;;5.68;;
28910;SDS011;16028;42.642;23.310;2023-08-30T11:14:05;12.50;;;5.88;;
28910;SDS011;16028;42.642;23.310;2023-08-30T11:16:33;11.25;;;5.53;;
28910;SDS011;16028;42.642;23.310;2023-08-30T11:19:00;9.90;;;5.57;;
28910;SDS011;16028;42.642;23.310;2023-08-30T11:21:27;10.82;;;6.10;;
28910;SDS011;16028;42.642;23.310;2023-08-30T11:23:55;10.07;;;6.13;;
28910;SDS011;16028;42.642;23.310;2023-08-30T11:26:22;8.07;;;5.72;;
28910;SDS011;16028;42.642;23.310;2023-08-30T11:28:49;8.63;;;5.72;;
28910;SDS011;16028;42.642;23.310;2023-08-30T11:31:18;11.57;;;6.28;;
28910;SDS011;16028;42.642;23.310;2023-08-30T11:33:50;10.52;;;6.05;;
28910;SDS011;16028;42.642;23.310;2023-08-30T11:36:18;11.68;;;6.13;;
28910;SDS011;16028;42.642;23.310;2023-08-30T11:38:47;9.45;;;6.25;;
28910;SDS011;16028;42.642;23.310;2023-08-30T11:41:15;11.45;;;6.05;;
28910;SDS011;16028;42.642;23.310;2023-08-30T11:43:42;10.35;;;5.78;;
28910;SDS011;16028;42.642;23.310;2023-08-30T11:46:10;11.57;;;5.43;;
28910;SDS011;16028;42.642;23.310;2023-08-30T11:48:37;11.02;;;5.45;;
28910;SDS011;16028;42.642;23.310;2023-08-30T11:51:04;12.30;;;5.82;;
28910;SDS011;16028;42.642;23.310;2023-08-30T11:53:32;9.52;;;5.32;;
28910;SDS011;16028;42.642;23.310;2023-08-30T11:55:59;11.00;;;5.50;;
28910;SDS011;16028;42.642;23.310;2023-08-30T11:58:27;12.50;;;5.45;;
28910;SDS011;16028;42.642;23.310;2023-08-30T12:00:58;6.03;;;5.10;;
28910;SDS011;16028;42.642;23.310;2023-08-30T12:03:25;12.43;;;5.80;;
28910;SDS011;16028;42.642;23.310;2023-08-30T12:05:53;7.47;;;5.38;;
28910;SDS011;16028;42.642;23.310;2023-08-30T12:08:21;8.18;;;5.05;;
28910;SDS011;16028;42.642;23.310;2023-08-30T12:10:50;7.57;;;5.05;;
28910;SDS011;16028;42.642;23.310;2023-08-30T12:13:21;13.68;;;4.95;;
28910;SDS011;16028;42.642;23.310;2023-08-30T12:15:50;12.43;;;5.95;;
28910;SDS011;16028;42.642;23.310;2023-08-30T12:18:17;8.52;;;5.60;;
28910;SDS011;16028;42.642;23.310;2023-08-30T12:20:54;11.63;;;5.93;;
28910;SDS011;16028;42.642;23.310;2023-08-30T12:23:22;8.88;;;5.90;;
28910;SDS011;16028;42.642;23.310;2023-08-30T12:25:59;8.88;;;5.90;;
28910;SDS011;16028;42.642;23.310;2023-08-30T12:28:26;7.57;;;5.63;;
28910;SDS011;16028;42.642;23.310;2023-08-30T12:30:55;5.93;;;5.13;;
28910;SDS011;16028;42.642;23.310;2023-08-30T12:33:22;11.48;;;5.78;;
28910;SDS011;16028;42.642;23.310;2023-08-30T12:35:50;9.98;;;6.25;;
28910;SDS011;16028;42.642;23.310;2023-08-30T12:38:17;15.20;;;6.03;;
28910;SDS011;16028;42.642;23.310;2023-08-30T12:40:44;11.65;;;6.28;;
28910;SDS011;16028;42.642;23.310;2023-08-30T12:43:11;10.35;;;6.10;;
28910;SDS011;16028;42.642;23.310;2023-08-30T12:45:38;10.90;;;6.28;;
28910;SDS011;16028;42.642;23.310;2023-08-30T12:48:07;7.70;;;5.65;;
28910;SDS011;16028;42.642;23.310;2023-08-30T12:50:35;10.15;;;6.20;;
28910;SDS011;16028;42.642;23.310;2023-08-30T12:53:02;9.35;;;6.35;;
28910;SDS011;16028;42.642;23.310;2023-08-30T12:55:29;10.98;;;6.50;;
28910;SDS011;16028;42.642;23.310;2023-08-30T12:57:56;8.43;;;6.25;;
28910;SDS011;16028;42.642;23.310;2023-08-30T13:00:24;8.05;;;6.47;;
28910;SDS011;16028;42.642;23.310;2023-08-30T13:02:51;11.02;;;5.90;;
28910;SDS011;16028;42.642;23.310;2023-08-30T13:05:19;11.07;;;6.32;;
28910;SDS011;16028;42.642;23.310;2023-08-30T13:07:47;11.40;;;6.25;;
28910;SDS011;16028;42.642;23.310;2023-08-30T13:10:14;7.95;;;5.28;;
28910;SDS011;16028;42.642;23.310;2023-08-30T13:12:41;8.38;;;4.88;;
28910;SDS011;16028;42.642;23.310;2023-08-30T13:15:09;5.85;;;4.78;;
28910;SDS011;16028;42.642;23.310;2023-08-30T13:17:36;8.95;;;5.40;;
28910;SDS011;16028;42.642;23.310;2023-08-30T13:20:03;7.00;;;5.85;;
28910;SDS011;16028;42.642;23.310;2023-08-30T13:22:32;9.40;;;5.38;;
28910;SDS011;16028;42.642;23.310;2023-08-30T13:24:59;12.40;;;5.60;;
28910;SDS011;16028;42.642;23.310;2023-08-30T13:27:25;8.35;;;5.88;;
28910;SDS011;16028;42.642;23.310;2023-08-30T13:29:52;9.98;;;5.07;;
28910;SDS011;16028;42.642;23.310;2023-08-30T13:32:19;9.52;;;5.22;;
28910;SDS011;16028;42.642;23.310;2023-08-30T13:34:46;8.98;;;4.78;;
28910;SDS011;16028;42.642;23.310;2023-08-30T13:37:13;6.55;;;5.05;;
28910;SDS011;16028;42.642;23.310;2023-08-30T13:39:41;6.72;;;4.82;;
28910;SDS011;16028;42.642;23.310;2023-08-30T13:42:08;6.20;;;4.47;;
28910;SDS011;16028;42.642;23.310;2023-08-30T13:44:35;7.20;;;4.82;;
28910;SDS011;16028;42.642;23.310;2023-08-30T13:47:02;9.25;;;4.70;;
28910;SDS011;16028;42.642;23.310;2023-08-30T13:49:30;7.85;;;4.70;;
28910;SDS011;16028;42.642;23.310;2023-08-30T13:51:56;8.02;;;4.47;;
28910;SDS011;16028;42.642;23.310;2023-08-30T13:54:23;7.88;;;4.50;;
28910;SDS011;16028;42.642;23.310;2023-08-30T13:56:52;12.95;;;4.63;;
28910;SDS011;16028;42.642;23.310;2023-08-30T13:59:18;5.40;;;4.40;;
28910;SDS011;16028;42.642;23.310;2023-08-30T14:01:46;5.25;;;4.40;;
28910;SDS011;16028;42.642;23.310;2023-08-30T14:04:13;5.60;;;4.53;;
28910;SDS011;16028;42.642;23.310;2023-08-30T14:06:39;8.25;;;5.07;;
28910;SDS011;16028;42.642;23.310;2023-08-30T14:09:06;9.25;;;4.47;;
28910;SDS011;16028;42.642;23.310;2023-08-30T14:11:33;8.23;;;4.43;;
28910;SDS011;16028;42.642;23.310;2023-08-30T14:14:02;7.45;;;4.60;;
28910;SDS011;16028;42.642;23.310;2023-08-30T14:16:29;9.60;;;4.60;;
28910;SDS011;16028;42.642;23.310;2023-08-30T14:18:56;8.27;;;4.25;;
28910;SDS011;16028;42.642;23.310;2023-08-30T14:21:25;8.68;;;4.75;;
28910;SDS011;16028;42.642;23.310;2023-08-30T14:23:52;5.50;;;4.07;;
28910;SDS011;16028;42.642;23.310;2023-08-30T14:26:19;6.35;;;3.85;;
28910;SDS011;16028;42.642;23.310;2023-08-30T14:28:46;9.10;;;3.97;;
28910;SDS011;16028;42.642;23.310;2023-08-30T14:31:14;4.13;;;3.47;;